Pittsburgh, Pennsylvania
Traffic Map
Current Weather Conditions
Pittsburgh, Pennsylvania
Overcast
Overcast
60°
Feels Like: 60°
Wind Chill: 60° Ceiling: 1000
Heat Index: 60° Visibility: 8mi
Dew Point: 57° Wind: 6mph
Humidity: 90% Direction: 40° (NE)
Pressure: 30.08in Gusts: 0mph
Raw Report DataKAGC 291153Z 04005KT 8SM BKN010 OVC085 16/14 A3008 RMK AO2 SLP188 60049 70050 T01560139 10172 20144 52005
Traffic Incident Summary
Active as of:
Severity:
Category:
InformationThere was an issue retrieving the traffic information for this location. Please try a different location or try again shortly.
Advertisements
Track Severe Weather on mobile